Time;durP1;ratioP1;P1;durP2;ratioP2;P2;SDS_P1;SDS_P2;PMS_P1;PMS_P2;Temp;Humidity;BMP_temperature;BMP_pressure;BME280_temperature;BME280_humidity;BME280_pressure;Samples;Min_cycle;Max_cycle;Signal;HPM_P1;HPM_P2
2022/12/21 00:01:51;;;;;;;39.13;19.33;;;;;;;1.37;80.32;101276.94;5074272;28;20043;-74
2022/12/21 00:04:16;;;;;;;46.92;21.33;;;;;;;1.35;80.10;101273.47;5074150;28;20017;-74
2022/12/21 00:06:42;;;;;;;39.55;19.15;;;;;;;1.34;80.40;101284.94;5074191;28;20028;-74
2022/12/21 00:09:11;;;;;;;38.83;20.13;;;;;;;1.21;79.98;101265.16;5074060;28;20039;-74
2022/12/21 00:11:37;;;;;;;39.25;18.83;;;;;;;1.34;79.66;101270.88;5073713;28;20108;-74
2022/12/21 00:14:04;;;;;;;43.40;19.17;;;;;;;1.15;79.74;101244.22;5073831;28;20173;-73
2022/12/21 00:16:32;;;;;;;39.30;18.45;;;;;;;1.31;79.06;101265.69;5073988;28;20037;-74
2022/12/21 00:18:59;;;;;;;38.38;17.73;;;;;;;1.32;80.12;101273.56;5072642;28;20039;-73
2022/12/21 00:21:30;;;;;;;39.08;18.55;;;;;;;1.28;80.63;101279.00;5073463;28;20022;-71
2022/12/21 00:23:59;;;;;;;41.88;20.08;;;;;;;1.07;80.38;101243.66;5072138;28;20086;-71
2022/12/21 00:26:30;;;;;;;40.88;18.45;;;;;;;1.21;80.20;101241.38;5072291;28;20392;-71
2022/12/21 00:28:57;;;;;;;37.15;17.00;;;;;;;1.08;79.92;101212.78;5072033;28;20407;-70
2022/12/21 00:31:28;;;;;;;37.90;17.98;;;;;;;1.25;80.14;101253.56;5072112;28;20469;-71
2022/12/21 00:33:54;;;;;;;37.63;17.55;;;;;;;1.26;80.09;101255.28;5071960;28;20552;-70
2022/12/21 00:36:21;;;;;;;40.10;17.50;;;;;;;1.29;79.33;101264.91;5071966;28;20032;-71
2022/12/21 00:38:47;;;;;;;39.15;18.15;;;;;;;1.15;79.15;101249.53;5071938;28;20121;-71
2022/12/21 00:41:15;;;;;;;38.03;17.52;;;;;;;1.18;79.22;101249.41;5071662;28;20040;-71
2022/12/21 00:43:42;;;;;;;36.40;16.75;;;;;;;1.17;78.44;101231.84;5072325;28;20489;-74
2022/12/21 00:46:14;;;;;;;47.72;18.92;;;;;;;1.24;78.36;101248.31;5073008;28;20048;-74
2022/12/21 00:48:39;;;;;;;36.03;16.20;;;;;;;1.09;78.19;101227.72;5072639;28;20499;-74
2022/12/21 00:51:07;;;;;;;38.40;16.70;;;;;;;1.22;78.32;101242.22;5072716;28;20025;-74
2022/12/21 00:53:33;;;;;;;45.53;19.90;;;;;;;1.20;77.56;101236.16;5072859;28;20036;-74
2022/12/21 00:56:00;;;;;;;39.95;17.48;;;;;;;1.25;78.06;101236.84;5072908;28;20037;-74
2022/12/21 00:58:28;;;;;;;31.60;15.55;;;;;;;1.22;77.51;101237.81;5072960;28;20024;-74
2022/12/21 01:00:58;;;;;;;30.92;14.23;;;;;;;1.16;77.48;101218.69;5072688;28;20542;-73
2022/12/21 01:03:24;;;;;;;34.70;15.05;;;;;;;1.23;77.43;101228.97;5069571;28;20056;-73
2022/12/21 01:05:51;;;;;;;29.75;14.68;;;;;;;1.16;76.96;101218.69;5070998;28;20028;-74
2022/12/21 01:08:18;;;;;;;28.20;12.75;;;;;;;0.98;76.83;101180.56;5072147;28;20032;-74
2022/12/21 01:10:43;;;;;;;28.90;13.90;;;;;;;1.22;76.15;101226.38;5071882;28;20020;-74
2022/12/21 01:13:11;;;;;;;30.92;14.13;;;;;;;1.18;76.37;101209.78;5072599;28;20116;-73
2022/12/21 01:15:44;;;;;;;25.73;12.55;;;;;;;1.23;75.93;101210.47;5072176;28;20445;-74
2022/12/21 01:18:11;;;;;;;27.42;12.55;;;;;;;1.14;75.88;101205.53;5072584;28;20488;-73
2022/12/21 01:20:49;;;;;;;28.05;13.15;;;;;;;1.19;75.96;101203.56;5072230;28;20501;-74
2022/12/21 01:23:15;;;;;;;28.20;13.23;;;;;;;1.20;76.03;101209.72;5070636;28;20032;-73
2022/12/21 01:25:45;;;;;;;27.90;13.00;;;;;;;1.19;75.82;101197.44;5072488;28;20470;-73
2022/12/21 01:28:11;;;;;;;26.38;12.05;;;;;;;1.19;76.08;101203.56;5072250;28;20085;-74
2022/12/21 01:30:38;;;;;;;26.05;13.32;;;;;;;1.13;75.97;101206.44;5071899;28;20026;-74
2022/12/21 01:33:12;;;;;;;24.45;12.05;;;;;;;1.09;75.66;101190.75;5070626;28;20089;-74
2022/12/21 01:35:40;;;;;;;26.00;12.35;;;;;;;1.19;75.25;101189.53;5072491;28;20497;-74
2022/12/21 01:38:05;;;;;;;26.10;12.05;;;;;;;1.20;75.41;101184.19;5071696;28;20025;-74
2022/12/21 01:40:31;;;;;;;24.92;11.52;;;;;;;1.02;75.48;101150.50;5071873;28;20033;-74
2022/12/21 01:42:56;;;;;;;28.13;13.00;;;;;;;1.23;75.02;101183.22;5072189;28;20059;-73
2022/12/21 01:45:35;;;;;;;27.33;12.68;;;;;;;1.23;75.24;101181.41;5071944;28;20040;-74
2022/12/21 01:48:05;;;;;;;29.45;12.88;;;;;;;0.96;74.33;101137.50;5070744;28;20032;-74
2022/12/21 01:50:44;;;;;;;26.35;12.15;;;;;;;1.11;73.96;101159.88;5072318;28;20107;-74
2022/12/21 01:53:16;;;;;;;25.02;11.65;;;;;;;1.28;73.49;101168.91;5072175;28;20037;-74
2022/12/21 01:55:44;;;;;;;27.33;11.73;;;;;;;1.22;73.41;101155.91;5071903;28;20453;-74
2022/12/21 01:58:10;;;;;;;23.77;12.02;;;;;;;1.31;73.37;101176.72;5071986;28;20044;-74
2022/12/21 02:00:37;;;;;;;26.45;11.10;;;;;;;1.20;73.25;101147.22;5070645;28;20538;-73
2022/12/21 02:03:07;;;;;;;27.55;12.30;;;;;;;1.31;73.47;101160.88;5071899;28;20048;-73
2022/12/21 02:05:57;;;;;;;27.88;12.30;;;;;;;1.31;73.14;101158.22;5070615;28;20048;-74
2022/12/21 02:08:22;;;;;;;24.15;11.85;;;;;;;1.21;73.36;101143.63;5089851;28;20477;-74
2022/12/21 02:10:49;;;;;;;24.17;11.82;;;;;;;1.34;73.17;101152.84;5071735;28;20023;-73
2022/12/21 02:13:16;;;;;;;28.13;12.18;;;;;;;1.31;73.32;101145.00;5071866;28;20025;-73
2022/12/21 02:16:07;;;;;;;26.00;12.82;;;;;;;1.33;73.22;101152.88;5070545;28;20040;-74
2022/12/21 02:18:56;;;;;;;25.20;11.13;;;;;;;1.33;73.42;101150.25;5070704;28;20066;-73
2022/12/21 02:21:28;;;;;;;25.27;10.95;;;;;;;1.31;72.49;101134.44;5069065;28;20059;-73
2022/12/21 02:24:19;;;;;;;22.58;11.18;;;;;;;1.39;72.79;101150.03;5071681;28;20060;-74
2022/12/21 02:27:03;;;;;;;19.58;9.80;;;;;;;1.33;72.27;101142.31;5069074;28;20028;-74
2022/12/21 02:30:06;;;;;;;24.25;11.80;;;;;;;1.35;72.23;101140.50;5050236;28;20136;-74
2022/12/21 02:32:45;;;;;;;23.67;10.90;;;;;;;1.38;72.15;101143.88;5067510;28;20021;-73
2022/12/21 02:35:47;;;;;;;25.08;10.73;;;;;;;1.34;72.06;101129.06;5070053;28;20037;-73
2022/12/21 02:38:30;;;;;;;23.88;11.35;;;;;;;1.36;71.60;101113.13;5071850;28;20033;-74
2022/12/21 02:41:18;;;;;;;19.70;10.05;;;;;;;1.37;71.63;101125.44;5070561;28;20041;-74
2022/12/21 02:46:42;;;;;;;23.17;10.45;;;;;;;1.30;71.14;101095.75;5070442;28;20389;-71
2022/12/21 02:49:16;;;;;;;24.05;11.13;;;;;;;1.44;70.98;101118.97;5068589;28;20076;-71
2022/12/21 02:52:00;;;;;;;;;;;;;;;1.40;71.06;101118.25;5069101;28;20382;-71
2022/12/21 02:54:25;;;;;;;23.45;10.52;;;;;;;1.22;70.96;101076.66;5070018;28;19993;-71
2022/12/21 02:56:51;;;;;;;22.50;10.48;;;;;;;1.35;71.01;101099.06;5069838;28;20032;-71
2022/12/21 02:59:21;;;;;;;22.98;10.05;;;;;;;1.45;70.75;101121.56;5068435;28;20025;-70
2022/12/21 03:02:08;;;;;;;23.17;10.02;;;;;;;1.46;70.97;101107.47;5069997;28;20381;-70
2022/12/21 03:04:52;;;;;;;23.88;11.10;;;;;;;1.46;71.23;101111.88;5069988;28;20025;-70
2022/12/21 03:07:50;;;;;;;23.83;10.23;;;;;;;1.41;71.42;101108.53;5070194;28;20385;-74
2022/12/21 03:10:31;;;;;;;22.65;10.00;;;;;;;1.50;70.77;101110.81;5071190;28;20112;-74
2022/12/21 03:13:02;;;;;;;23.27;11.10;;;;;;;1.50;70.49;101103.78;5071273;28;20130;-74
2022/12/21 03:15:50;;;;;;;26.30;10.60;;;;;;;1.31;70.46;101071.03;5071338;28;20116;-74
2022/12/21 03:19:01;;;;;;;22.85;10.18;;;;;;;1.47;70.61;101098.59;5069963;28;20483;-74
2022/12/21 03:21:55;;;;;;;19.67;9.40;;;;;;;1.47;71.12;101098.59;5039381;28;20036;-73
2022/12/21 03:24:41;;;;;;;26.10;11.88;;;;;;;1.43;71.16;101101.41;5027731;28;20043;-74
2022/12/21 03:27:14;;;;;;;20.70;9.38;;;;;;;1.46;71.28;101091.59;5074547;28;20064;-74
2022/12/21 03:29:50;;;;;;;21.77;11.80;;;;;;;1.46;71.84;101096.00;5074949;28;20502;-74
2022/12/21 03:32:24;;;;;;;22.15;10.27;;;;;;;1.49;71.61;101090.63;5074744;28;20400;-74
2022/12/21 03:34:53;;;;;;;24.05;11.32;;;;;;;1.48;71.83;101084.44;5074831;28;20036;-74
2022/12/21 03:37:24;;;;;;;24.38;11.35;;;;;;;1.48;70.95;101065.94;5073309;28;20039;-74
2022/12/21 03:39:58;;;;;;;24.38;11.10;;;;;;;1.58;70.84;101077.88;5074711;28;20021;-74
2022/12/21 03:42:28;;;;;;;20.52;10.88;;;;;;;1.53;71.56;101071.94;5074588;28;20068;-74
2022/12/21 03:44:59;;;;;;;24.45;11.77;;;;;;;1.42;71.25;101052.97;5074666;28;20050;-74
2022/12/21 03:47:35;;;;;;;25.30;12.27;;;;;;;1.40;71.29;101049.56;5074944;28;20028;-74
2022/12/21 03:50:05;;;;;;;26.45;12.23;;;;;;;1.43;70.96;101052.06;5074516;28;20028;-74
2022/12/21 03:52:39;;;;;;;29.45;12.40;;;;;;;1.50;71.30;101072.06;5074833;28;20060;-74
2022/12/21 03:55:25;;;;;;;;;;;;;;;1.56;71.80;101084.16;5074886;28;20431;-74
2022/12/21 03:57:52;;;;;;;25.85;11.85;;;;;;;1.38;71.43;101051.38;5073644;28;19951;-74
2022/12/21 04:00:18;;;;;;;27.50;12.68;;;;;;;1.54;71.39;101078.94;5073936;28;20039;-74
2022/12/21 04:03:23;;;;;;;27.67;12.70;;;;;;;1.56;71.27;101071.81;5073977;28;20385;-74
2022/12/21 04:05:54;;;;;;;27.98;12.45;;;;;;;1.59;71.63;101073.47;5072647;28;20036;-73
2022/12/21 04:08:21;;;;;;;28.73;11.80;;;;;;;1.59;71.70;101077.00;5074172;28;20404;-74
2022/12/21 04:10:48;;;;;;;28.08;11.73;;;;;;;1.56;71.96;101069.19;5072619;28;20124;-73
2022/12/21 04:13:14;;;;;;;27.77;12.25;;;;;;;1.52;71.66;101059.63;5073894;28;20025;-74
2022/12/21 04:21:07;;;;;;;25.98;13.40;;;;;;;1.54;71.85;101052.50;5073889;28;20500;-73
2022/12/21 04:29:01;;;;;;;27.40;13.48;;;;;;;1.59;72.16;101061.13;5073831;28;20489;-73
2022/12/21 04:31:26;;;;;;;32.78;14.07;;;;;;;1.03;72.66;100971.78;5073464;28;20119;-74
2022/12/21 04:33:52;;;;;;;28.10;12.30;;;;;;;1.58;72.92;101058.53;5072914;28;20024;-73
2022/12/21 04:39:01;;;;;;;29.70;13.68;;;;;;;1.45;72.70;101025.59;5065856;28;20039;-73
2022/12/21 04:41:26;;;;;;;30.40;14.68;;;;;;;1.56;72.43;101045.38;5073117;28;20037;-74
2022/12/21 04:43:52;;;;;;;28.85;13.80;;;;;;;1.53;72.18;101032.28;5072204;28;20124;-73
2022/12/21 04:46:17;;;;;;;34.40;15.43;;;;;;;1.44;72.33;101019.44;5071715;28;20038;-73
2022/12/21 04:48:44;;;;;;;29.65;14.27;;;;;;;1.45;72.73;101037.00;5071927;28;20107;-73
2022/12/21 04:51:15;;;;;;;30.75;15.30;;;;;;;1.54;73.00;101044.56;5071583;28;20024;-74
2022/12/21 04:53:41;;;;;;;28.55;14.27;;;;;;;1.56;72.74;101053.31;5072797;28;20024;-73
2022/12/21 04:56:08;;;;;;;30.15;15.27;;;;;;;1.60;72.84;101056.69;5072929;28;20024;-73
2022/12/21 04:58:34;;;;;;;32.05;15.73;;;;;;;1.40;72.76;101012.56;5073145;28;20029;-73
2022/12/21 05:01:01;;;;;;;32.90;15.18;;;;;;;1.55;72.73;101041.00;5072970;28;20238;-73
2022/12/21 05:03:27;;;;;;;28.25;14.35;;;;;;;1.51;72.71;101031.47;5073078;28;20020;-74
2022/12/21 05:05:52;;;;;;;31.90;15.65;;;;;;;1.58;72.24;101045.31;5071687;28;20024;-73
2022/12/21 05:08:18;;;;;;;29.23;15.13;;;;;;;1.42;72.64;101010.69;5071688;28;20500;-73
2022/12/21 05:10:43;;;;;;;33.75;16.27;;;;;;;1.42;72.76;101018.63;5072709;28;20082;-74
2022/12/21 05:13:09;;;;;;;29.85;15.20;;;;;;;1.45;72.91;101017.66;5071486;28;20142;-71
2022/12/21 05:15:36;;;;;;;32.45;15.98;;;;;;;1.55;72.81;101026.94;5069782;28;20070;-73
2022/12/21 05:18:02;;;;;;;29.95;15.30;;;;;;;1.51;73.09;101020.91;5072886;28;20104;-73
2022/12/21 05:20:27;;;;;;;34.22;16.02;;;;;;;1.43;73.01;100987.78;5072745;28;20099;-73
2022/12/21 05:22:53;;;;;;;34.00;16.15;;;;;;;1.60;72.79;101009.09;5072426;28;20374;-73
2022/12/21 05:25:18;;;;;;;33.80;15.93;;;;;;;1.47;73.25;100995.53;5071226;28;20023;-73
2022/12/21 05:27:44;;;;;;;32.25;15.10;;;;;;;1.61;73.73;101032.00;5071314;28;20032;-71
2022/12/21 05:30:09;;;;;;;38.45;16.35;;;;;;;1.41;73.92;101005.47;5070948;28;20024;-71
2022/12/21 05:32:35;;;;;;;33.78;16.80;;;;;;;1.53;74.01;101028.78;5071206;28;20044;-71
2022/12/21 05:35:00;;;;;;;34.05;16.08;;;;;;;1.61;73.91;101027.53;5071001;28;20033;-71
2022/12/21 05:37:29;;;;;;;33.22;16.20;;;;;;;1.64;73.34;101039.78;5062486;28;20035;-72
2022/12/21 05:39:55;;;;;;;35.22;16.45;;;;;;;1.57;73.72;101019.78;5068595;28;20521;-71
2022/12/21 05:42:20;;;;;;;33.90;16.73;;;;;;;1.54;73.29;101012.84;5070028;28;20040;-71
2022/12/21 05:44:45;;;;;;;31.42;15.45;;;;;;;1.45;73.30;100984.16;5060884;28;20130;-71
2022/12/21 05:47:11;;;;;;;34.10;16.33;;;;;;;1.66;73.39;101028.22;5066831;28;20054;-71
2022/12/21 05:49:36;;;;;;;33.35;15.70;;;;;;;1.37;73.55;100977.44;5069350;28;20028;-71
2022/12/21 05:52:02;;;;;;;31.48;15.05;;;;;;;1.61;73.41;101021.41;5068485;28;20032;-70
2022/12/21 05:54:28;;;;;;;34.05;15.57;;;;;;;1.60;74.02;101027.59;5069352;28;20562;-71
2022/12/21 05:56:53;;;;;;;33.83;17.55;;;;;;;1.46;73.94;101007.03;5069366;28;20618;-71
2022/12/21 05:59:18;;;;;;;31.25;16.30;;;;;;;1.57;73.99;101027.72;5069474;28;20052;-70
2022/12/21 06:01:44;;;;;;;34.92;16.70;;;;;;;1.34;74.55;100985.50;5070247;28;20099;-70
2022/12/21 06:04:09;;;;;;;31.75;15.40;;;;;;;1.60;74.28;101031.13;5068775;28;20166;-71
2022/12/21 06:06:34;;;;;;;34.33;16.13;;;;;;;1.51;74.27;101017.38;5069001;28;20035;-71
2022/12/21 06:09:00;;;;;;;33.30;15.73;;;;;;;1.56;74.39;101023.38;5070007;28;20028;-70
2022/12/21 06:11:27;;;;;;;33.75;17.00;;;;;;;1.74;73.97;101034.06;5069926;28;20078;-70
2022/12/21 06:13:53;;;;;;;36.80;17.77;;;;;;;1.52;73.73;101006.75;5069920;28;20508;-70
2022/12/21 06:16:21;;;;;;;38.13;18.40;;;;;;;1.67;74.07;101011.44;5069863;28;20044;-70
2022/12/21 06:18:47;;;;;;;36.90;18.30;;;;;;;1.63;74.22;101016.91;5069942;28;20055;-70
2022/12/21 06:21:14;;;;;;;46.60;19.65;;;;;;;1.62;74.95;101031.06;5069229;28;20017;-71
2022/12/21 06:23:41;;;;;;;38.03;18.08;;;;;;;1.63;74.85;101019.56;5069301;28;20051;-70
2022/12/21 06:26:10;;;;;;;34.03;17.02;;;;;;;1.36;75.26;100973.09;5069457;28;20024;-71
2022/12/21 06:28:35;;;;;;;41.17;18.92;;;;;;;1.58;75.18;101022.38;5067906;28;20477;-71
2022/12/21 06:31:04;;;;;;;38.40;18.17;;;;;;;1.51;75.37;101012.97;5069065;28;20056;-73
2022/12/21 06:33:30;;;;;;;38.95;17.33;;;;;;;1.64;75.04;101027.41;5071539;28;20427;-73
2022/12/21 06:35:56;;;;;;;36.75;18.75;;;;;;;1.64;75.38;101019.50;5071836;28;20074;-74
2022/12/21 06:38:23;;;;;;;37.42;18.65;;;;;;;1.71;74.25;101017.47;5069739;28;20032;-73
2022/12/21 06:41:03;;;;;;;38.92;18.83;;;;;;;1.63;74.45;101020.41;5071183;28;20068;-74
2022/12/21 06:43:30;;;;;;;42.28;21.40;;;;;;;1.57;74.23;100998.66;5069938;28;20040;-74
2022/12/21 06:46:04;;;;;;;52.65;23.83;;;;;;;1.68;74.67;101026.38;5071344;28;20033;-74
2022/12/21 06:48:31;;;;;;;;;;;;;;;1.72;74.47;101037.69;5070602;28;20075;-74
2022/12/21 06:50:59;;;;;;;44.40;21.40;;;;;;;1.70;74.36;101029.81;5071107;28;20019;-74
2022/12/21 06:53:27;;;;;;;56.30;25.77;;;;;;;1.73;74.01;101019.13;5069802;28;20035;-74
2022/12/21 06:56:07;;;;;;;53.30;23.73;;;;;;;1.70;74.27;101028.94;5071175;28;20062;-73
2022/12/21 06:58:33;;;;;;;44.40;21.05;;;;;;;1.68;74.29;101036.09;5071061;28;20108;-73
2022/12/21 07:01:16;;;;;;;60.53;26.33;;;;;;;1.64;74.36;101027.41;5073374;28;20024;-73
2022/12/21 07:03:42;;;;;;;64.97;26.83;;;;;;;1.70;74.96;101042.16;5075249;28;20067;-73
2022/12/21 07:06:09;;;;;;;99.80;38.15;;;;;;;1.69;74.90;101038.69;5072267;28;20436;-74
2022/12/21 07:08:34;;;;;;;98.35;40.33;;;;;;;1.64;75.04;101026.56;5072727;28;20528;-73
2022/12/21 07:11:06;;;;;;;87.80;34.90;;;;;;;1.70;75.13;101032.47;5074621;28;20068;-73
2022/12/21 07:13:34;;;;;;;109.57;38.40;;;;;;;1.73;75.46;101042.91;5074661;28;20501;-73
2022/12/21 07:16:00;;;;;;;76.88;30.20;;;;;;;1.69;75.49;101020.19;5072936;28;20634;-73
2022/12/21 07:18:25;;;;;;;59.78;26.80;;;;;;;1.75;75.29;101040.22;5074595;28;20028;-74
2022/12/21 07:20:58;;;;;;;61.05;27.45;;;;;;;1.77;75.29;101026.00;5074352;28;20020;-73
2022/12/21 07:23:26;;;;;;;42.45;21.63;;;;;;;1.77;74.83;101022.47;5074723;28;20032;-73
2022/12/21 07:25:52;;;;;;;41.90;21.10;;;;;;;1.69;75.07;101014.03;5074965;28;20050;-73
2022/12/21 07:28:18;;;;;;;43.38;20.88;;;;;;;1.71;75.27;101018.31;5073581;28;20021;-74
2022/12/21 07:30:47;;;;;;;40.15;20.58;;;;;;;1.73;75.34;101015.59;5074349;28;20028;-73
2022/12/21 07:33:14;;;;;;;39.55;19.13;;;;;;;1.74;75.54;101022.66;5073095;28;20389;-73
2022/12/21 07:35:40;;;;;;;41.58;21.70;;;;;;;1.78;75.63;101029.53;5074351;28;20040;-73
2022/12/21 07:38:05;;;;;;;58.70;27.63;;;;;;;1.78;75.97;101019.78;5073319;28;20496;-73
2022/12/21 07:40:30;;;;;;;53.60;25.95;;;;;;;1.77;75.82;101010.13;5074359;28;20108;-73
2022/12/21 07:42:56;;;;;;;41.78;21.85;;;;;;;1.86;76.31;101022.13;5074288;28;20443;-73
2022/12/21 07:45:21;;;;;;;40.00;20.50;;;;;;;1.76;75.38;101011.06;5074389;28;20434;-73
2022/12/21 07:47:47;;;;;;;44.17;21.02;;;;;;;1.85;75.74;101031.84;5074678;28;20024;-73
2022/12/21 07:50:12;;;;;;;41.13;19.63;;;;;;;1.65;75.42;100986.00;5073994;28;20032;-73
2022/12/21 07:52:38;;;;;;;41.58;20.13;;;;;;;1.74;75.21;100999.69;5074588;28;20029;-73
2022/12/21 07:55:05;;;;;;;40.75;19.88;;;;;;;1.90;74.92;101026.34;5074529;28;20496;-73
2022/12/21 07:57:30;;;;;;;38.50;21.05;;;;;;;1.85;75.09;101015.13;5074052;28;20090;-73
2022/12/21 07:59:56;;;;;;;47.10;22.95;;;;;;;1.85;74.84;100997.47;5073821;28;20021;-73
2022/12/21 08:02:21;;;;;;;42.35;20.63;;;;;;;2.04;74.33;101027.50;5074122;28;20344;-73
2022/12/21 08:04:46;;;;;;;47.25;22.00;;;;;;;1.96;74.47;101021.69;5072851;28;20040;-73
2022/12/21 08:07:12;;;;;;;42.92;21.15;;;;;;;1.85;74.35;101015.13;5073966;28;20035;-73
2022/12/21 08:09:37;;;;;;;41.88;20.55;;;;;;;1.87;74.78;101002.69;5074097;28;20473;-73
2022/12/21 08:12:03;;;;;;;45.03;22.83;;;;;;;1.90;74.97;101014.00;5072365;28;20028;-74
2022/12/21 08:14:29;;;;;;;52.65;23.85;;;;;;;1.96;75.06;101018.16;5073345;28;20099;-74
2022/12/21 08:16:55;;;;;;;39.47;20.05;;;;;;;1.92;74.99;100998.94;5073962;28;20618;-74
2022/12/21 08:19:21;;;;;;;39.45;19.88;;;;;;;1.88;74.55;101005.28;5073687;28;20028;-73
2022/12/21 08:21:46;;;;;;;40.30;20.20;;;;;;;1.92;74.21;101001.59;5073780;28;20107;-73
2022/12/21 08:24:12;;;;;;;47.28;20.92;;;;;;;1.90;74.83;101005.19;5073372;28;20018;-73
2022/12/21 08:26:37;;;;;;;43.60;21.38;;;;;;;2.00;74.63;101006.56;5072047;28;20585;-73
2022/12/21 08:29:05;;;;;;;41.95;20.58;;;;;;;1.95;74.36;100997.94;5073428;28;20746;-73
2022/12/21 08:31:31;;;;;;;46.38;22.15;;;;;;;1.87;74.51;100970.97;5073581;28;20052;-73
2022/12/21 08:33:56;;;;;;;42.10;19.92;;;;;;;1.85;74.55;100971.03;5073683;28;20056;-73
2022/12/21 08:36:23;;;;;;;41.03;20.10;;;;;;;1.98;74.87;100988.09;5072454;28;20449;-73
2022/12/21 08:38:51;;;;;;;39.55;19.40;;;;;;;1.88;74.86;100972.69;5073639;28;20067;-73
2022/12/21 08:41:17;;;;;;;42.47;21.40;;;;;;;2.08;74.71;100999.16;5073308;28;20543;-73
2022/12/21 08:43:43;;;;;;;47.25;20.65;;;;;;;2.05;75.17;100997.50;5072185;28;20121;-73
2022/12/21 08:46:11;;;;;;;42.78;19.50;;;;;;;2.05;74.82;100997.50;5073143;28;20044;-73
2022/12/21 08:48:36;;;;;;;43.33;21.30;;;;;;;2.02;74.91;100994.09;5073026;28;20020;-73
2022/12/21 08:51:04;;;;;;;45.20;21.58;;;;;;;1.88;75.14;100962.97;5072878;28;20123;-72
2022/12/21 08:53:30;;;;;;;44.10;22.40;;;;;;;2.04;74.54;100971.09;5072894;28;20073;-73
2022/12/21 08:55:55;;;;;;;41.92;21.58;;;;;;;2.03;74.82;100975.53;5071919;28;20068;-73
2022/12/21 08:58:22;;;;;;;45.42;21.27;;;;;;;2.09;75.09;100964.69;5072639;28;20025;-73
2022/12/21 09:00:51;;;;;;;44.20;22.17;;;;;;;2.08;75.52;100970.03;5073097;28;20094;-73
2022/12/21 09:03:16;;;;;;;49.67;21.88;;;;;;;2.00;75.60;100958.94;5071664;28;20024;-73
2022/12/21 09:05:42;;;;;;;45.58;23.27;;;;;;;2.09;75.54;100974.41;5071568;28;20562;-74
2022/12/21 09:08:08;;;;;;;50.72;23.45;;;;;;;2.09;75.68;100962.03;5071401;28;20050;-73
2022/12/21 09:10:34;;;;;;;47.97;23.27;;;;;;;2.09;75.88;100963.81;5072496;28;20017;-72
2022/12/21 09:12:59;;;;;;;46.15;23.42;;;;;;;2.11;76.08;100957.56;5072497;28;20039;-73
2022/12/21 09:15:25;;;;;;;46.75;22.73;;;;;;;2.13;75.56;100955.69;5072452;28;20110;-73
2022/12/21 09:17:50;;;;;;;45.92;22.15;;;;;;;2.06;75.81;100941.00;5072363;28;20036;-73
2022/12/21 09:20:16;;;;;;;42.95;21.77;;;;;;;2.23;75.71;100959.66;5070638;28;20020;-73
2022/12/21 09:22:42;;;;;;;42.38;22.20;;;;;;;2.12;75.88;100946.03;5071915;28;20036;-73
2022/12/21 09:25:08;;;;;;;43.15;21.48;;;;;;;2.24;75.10;100945.50;5072401;28;20583;-73
2022/12/21 09:27:33;;;;;;;42.30;21.45;;;;;;;2.12;75.76;100930.16;5072147;28;20024;-73
2022/12/21 09:29:59;;;;;;;41.42;21.55;;;;;;;2.26;75.41;100948.94;5070875;28;20547;-73
2022/12/21 09:32:25;;;;;;;47.75;22.95;;;;;;;2.18;75.74;100934.31;5072046;28;20741;-73
2022/12/21 09:34:51;;;;;;;42.50;21.42;;;;;;;2.18;75.83;100923.75;5070974;28;20480;-73
2022/12/21 09:37:17;;;;;;;42.50;20.73;;;;;;;2.18;75.27;100929.91;5071633;28;21262;-73
2022/12/21 09:39:43;;;;;;;45.05;21.80;;;;;;;2.18;75.34;100927.25;5069808;28;20081;-73
2022/12/21 09:42:41;;;;;;;40.25;21.40;;;;;;;2.29;75.48;100943.50;5071707;28;20054;-73
2022/12/21 09:45:10;;;;;;;47.17;21.92;;;;;;;2.29;75.53;100943.50;5067034;28;20020;-73
2022/12/21 09:48:01;;;;;;;45.95;22.08;;;;;;;2.31;75.72;100941.66;5071928;28;20082;-73
2022/12/21 09:50:31;;;;;;;50.08;23.45;;;;;;;2.31;75.70;100941.66;5070245;28;20518;-73
2022/12/21 09:53:03;;;;;;;44.35;21.63;;;;;;;2.43;75.23;100938.44;5070448;28;20044;-73
2022/12/21 09:55:34;;;;;;;43.60;20.95;;;;;;;2.46;75.18;100934.84;5071411;28;20024;-73
2022/12/21 09:58:04;;;;;;;50.55;23.10;;;;;;;2.43;75.15;100930.50;5071541;28;20024;-73
2022/12/21 10:00:36;;;;;;;44.75;21.88;;;;;;;2.48;74.97;100926.81;5071520;28;20074;-73
2022/12/21 10:03:39;;;;;;;47.20;22.88;;;;;;;2.44;75.26;100915.50;5071199;28;20016;-73
2022/12/21 10:06:17;;;;;;;48.05;22.40;;;;;;;2.37;75.63;100906.13;5042060;28;20054;-73
2022/12/21 10:08:54;;;;;;;52.70;24.17;;;;;;;2.48;75.63;100906.47;5068979;28;20016;-73
2022/12/21 10:11:29;;;;;;;44.47;22.15;;;;;;;2.54;75.72;100915.97;5071198;28;20024;-73
2022/12/21 10:14:16;;;;;;;46.13;23.98;;;;;;;2.49;75.82;100916.16;5070513;28;20139;-73
2022/12/21 10:17:06;;;;;;;45.65;23.80;;;;;;;2.51;76.21;100902.84;5070217;28;20043;-73
2022/12/21 10:19:53;;;;;;;46.47;22.88;;;;;;;2.54;76.18;100905.38;5070949;28;20086;-73
2022/12/21 10:22:23;;;;;;;48.83;24.02;;;;;;;2.53;76.32;100908.91;5059691;28;20044;-73
2022/12/21 10:24:52;;;;;;;43.28;22.65;;;;;;;2.50;77.11;100896.69;5071590;28;20059;-73
2022/12/21 10:27:33;;;;;;;44.28;23.10;;;;;;;2.55;77.21;100905.31;5071115;28;20025;-73
2022/12/21 10:29:59;;;;;;;45.33;23.23;;;;;;;2.43;76.71;100887.31;5070792;28;20029;-73
2022/12/21 10:32:32;;;;;;;51.15;23.17;;;;;;;2.60;76.79;100913.88;5071449;28;20047;-73
2022/12/21 10:35:14;;;;;;;44.97;22.60;;;;;;;2.65;76.71;100911.00;5073459;28;20112;-73
2022/12/21 10:37:39;;;;;;;44.65;23.00;;;;;;;2.67;76.84;100911.81;5075308;28;20033;-73
2022/12/21 10:40:05;;;;;;;44.72;22.65;;;;;;;2.65;76.10;100889.84;5075364;28;20104;-73
2022/12/21 10:42:40;;;;;;;46.15;22.70;;;;;;;2.71;76.32;100897.50;5075403;28;20837;-73
2022/12/21 10:45:12;;;;;;;46.33;23.38;;;;;;;2.75;76.58;100897.28;5075469;28;20477;-73
2022/12/21 10:47:40;;;;;;;56.42;30.27;;;;;;;2.65;76.16;100876.59;5075683;28;20086;-73
2022/12/21 10:50:06;;;;;;;50.92;27.33;;;;;;;2.79;76.07;100900.63;5075084;28;20052;-73
2022/12/21 10:52:51;;;;;;;48.70;25.70;;;;;;;2.77;76.67;100887.47;5075426;28;20041;-73
2022/12/21 10:55:19;;;;;;;44.65;23.40;;;;;;;2.77;76.46;100892.75;5072806;28;20020;-74
2022/12/21 10:57:46;;;;;;;44.55;22.52;;;;;;;2.68;76.00;100874.69;5069083;28;20511;-73
2022/12/21 11:00:32;;;;;;;49.97;23.25;;;;;;;2.81;76.83;100898.78;5073844;28;20024;-73
2022/12/21 11:03:00;;;;;;;56.28;26.48;;;;;;;2.73;77.03;100885.91;5075129;28;20033;-73
2022/12/21 11:05:27;;;;;;;51.63;25.90;;;;;;;2.80;76.29;100884.66;5074956;28;20028;-73
2022/12/21 11:07:53;;;;;;;45.78;23.15;;;;;;;2.83;76.78;100884.53;5075208;28;20086;-73
2022/12/21 11:10:26;;;;;;;48.53;24.45;;;;;;;2.86;77.22;100888.81;5074930;28;20036;-73
2022/12/21 11:12:52;;;;;;;41.88;23.25;;;;;;;2.75;76.90;100870.81;5074978;28;20036;-73
2022/12/21 11:15:21;;;;;;;46.38;24.52;;;;;;;2.90;75.88;100878.00;5075026;28;20373;-73
2022/12/21 11:17:47;;;;;;;45.50;24.48;;;;;;;2.85;76.17;100882.69;5086795;28;20028;-73
2022/12/21 11:20:19;;;;;;;45.40;24.58;;;;;;;2.79;76.00;100843.25;5074113;28;20036;-73
2022/12/21 11:22:47;;;;;;;49.53;24.35;;;;;;;2.76;75.93;100839.88;5075144;28;20111;-73
2022/12/21 11:25:17;;;;;;;47.08;24.65;;;;;;;2.89;76.02;100859.53;5083325;28;20024;-73
2022/12/21 11:27:47;;;;;;;49.20;24.40;;;;;;;2.88;76.50;100857.81;5093649;28;20024;-73
2022/12/21 11:30:25;;;;;;;44.95;24.30;;;;;;;2.90;76.60;100855.97;5074616;28;20495;-73
2022/12/21 11:32:54;;;;;;;45.65;24.17;;;;;;;2.79;76.44;100832.66;5074343;28;20086;-73
2022/12/21 11:35:22;;;;;;;45.75;24.13;;;;;;;2.92;77.00;100851.44;5073268;28;20036;-73
2022/12/21 11:38:13;;;;;;;47.03;26.65;;;;;;;2.93;76.86;100845.25;5074235;28;20024;-74
2022/12/21 11:40:53;;;;;;;51.30;25.60;;;;;;;2.93;76.79;100842.59;5069539;28;20493;-73
2022/12/21 11:43:19;;;;;;;49.05;25.30;;;;;;;2.96;77.12;100845.94;5074703;28;20489;-73
2022/12/21 11:45:50;;;;;;;55.03;26.20;;;;;;;2.96;76.46;100850.38;5073960;28;20078;-73
2022/12/21 11:48:37;;;;;;;43.92;24.05;;;;;;;2.95;76.52;100861.91;5074214;28;20044;-73
2022/12/21 11:51:25;;;;;;;51.47;24.80;;;;;;;2.96;76.43;100861.81;5074289;28;20021;-73